createdAt,value
2022-09-09T00:00:41.296Z,28.29
2022-09-09T00:02:11.509Z,28.33
2022-09-09T00:03:20.927Z,28.32
2022-09-09T00:04:36.434Z,28.29
2022-09-09T00:05:57.435Z,28.27
2022-09-09T00:07:07.613Z,28.29
2022-09-09T00:08:17.001Z,28.29
2022-09-09T00:09:21.562Z,28.27
2022-09-09T00:10:46.400Z,28.25
2022-09-09T00:11:57.384Z,28.21
2022-09-09T00:13:03.682Z,28.18
2022-09-09T00:14:14.382Z,28.16
2022-09-09T00:15:26.805Z,28.18
2022-09-09T00:16:37.706Z,28.21
2022-09-09T00:17:58.952Z,28.23
2022-09-09T00:19:07.285Z,28.22
2022-09-09T00:20:44.188Z,28.20
2022-09-09T00:22:15.018Z,28.21
2022-09-09T00:23:28.941Z,28.25
2022-09-09T00:24:39.784Z,28.25
2022-09-09T00:25:52.684Z,28.25
2022-09-09T00:27:02.456Z,28.24
2022-09-09T00:28:13.861Z,28.26
2022-09-09T00:29:42.696Z,28.23
2022-09-09T00:30:44.525Z,28.28
2022-09-09T00:31:47.687Z,28.27
2022-09-09T00:32:55.108Z,28.24
2022-09-09T00:34:04.043Z,28.22
2022-09-09T00:35:27.757Z,28.22
2022-09-09T00:36:32.355Z,28.23
2022-09-09T00:37:36.449Z,28.21
2022-09-09T00:38:43.306Z,28.16
2022-09-09T00:39:49.344Z,28.13
2022-09-09T00:40:53.852Z,28.15
2022-09-09T00:42:09.636Z,28.11
2022-09-09T00:43:27.448Z,28.13
2022-09-09T00:44:37.556Z,28.14
2022-09-09T00:45:56.739Z,28.11
2022-09-09T00:47:10.275Z,28.14
2022-09-09T00:48:13.038Z,28.15
2022-09-09T00:49:50.123Z,28.07
2022-09-09T00:50:59.372Z,28.00
2022-09-09T00:52:27.100Z,27.99
2022-09-09T00:54:08.768Z,28.04
2022-09-09T00:55:26.612Z,28.03
2022-09-09T00:56:38.313Z,28.03
2022-09-09T00:57:42.545Z,28.07
2022-09-09T00:59:06.769Z,28.01
2022-09-09T01:00:26.218Z,28.01
2022-09-09T01:01:27.794Z,28.08
2022-09-09T01:02:39.130Z,28.07
2022-09-09T01:03:49.308Z,28.06
2022-09-09T01:04:50.867Z,28.10
2022-09-09T01:06:16.794Z,28.08
2022-09-09T01:07:20.011Z,28.12
2022-09-09T01:08:34.414Z,28.06
2022-09-09T01:09:46.660Z,28.08
2022-09-09T01:10:54.328Z,28.06
2022-09-09T01:12:37.770Z,28.03
2022-09-09T01:13:42.580Z,27.98
2022-09-09T01:14:53.045Z,27.93
2022-09-09T01:15:59.719Z,27.97
2022-09-09T01:17:30.547Z,27.91
2022-09-09T01:18:41.472Z,27.91
2022-09-09T01:19:45.846Z,27.94
2022-09-09T01:21:05.301Z,27.90
2022-09-09T01:22:24.043Z,27.93
2022-09-09T01:24:01.092Z,27.91
2022-09-09T01:25:08.627Z,27.97
2022-09-09T01:26:35.054Z,27.93
2022-09-09T01:27:38.483Z,27.96
2022-09-09T01:28:40.498Z,27.96
2022-09-09T01:29:42.063Z,27.96
2022-09-09T01:30:44.019Z,27.96
2022-09-09T01:32:36.329Z,27.91
2022-09-09T01:33:37.995Z,27.98
2022-09-09T01:34:41.122Z,27.98
2022-09-09T01:36:01.720Z,27.91
2022-09-09T01:37:11.388Z,27.92
2022-09-09T01:38:13.977Z,27.95
2022-09-09T01:39:15.839Z,27.95
2022-09-09T01:40:17.683Z,27.96
2022-09-09T01:41:19.436Z,27.95
2022-09-09T01:42:21.012Z,27.96
2022-09-09T01:43:24.968Z,27.96
2022-09-09T01:44:28.055Z,27.97
2022-09-09T01:45:30.080Z,27.95
2022-09-09T01:46:31.798Z,27.96
2022-09-09T01:47:33.393Z,27.95
2022-09-09T01:48:35.469Z,27.93
2022-09-09T01:49:37.169Z,27.95
2022-09-09T01:50:38.757Z,27.92
2022-09-09T01:51:41.644Z,27.91
2022-09-09T01:52:46.645Z,27.89
2022-09-09T01:53:48.796Z,27.91
2022-09-09T01:54:50.454Z,27.92
2022-09-09T01:56:12.650Z,27.90
2022-09-09T01:57:25.842Z,27.95
2022-09-09T01:58:39.501Z,27.89
2022-09-09T01:59:50.152Z,27.85
2022-09-09T02:01:07.385Z,27.80
2022-09-09T02:02:32.368Z,27.84
2022-09-09T02:03:36.226Z,27.89
2022-09-09T02:04:44.861Z,27.89
2022-09-09T02:06:09.893Z,27.89
2022-09-09T02:07:36.137Z,27.85
2022-09-09T02:08:45.357Z,27.90
2022-09-09T02:09:52.583Z,27.91
2022-09-09T02:11:06.793Z,27.90
2022-09-09T02:12:15.882Z,27.86
2022-09-09T02:13:20.926Z,27.86
2022-09-09T02:14:26.871Z,27.89
2022-09-09T02:15:35.911Z,27.84
2022-09-09T02:16:46.791Z,27.82
2022-09-09T02:17:53.130Z,27.79
2022-09-09T02:19:24.839Z,27.78
2022-09-09T02:20:30.545Z,27.82
2022-09-09T02:21:38.025Z,27.79
2022-09-09T02:22:43.504Z,27.74
2022-09-09T02:23:47.907Z,27.78
2022-09-09T02:24:53.127Z,27.79
2022-09-09T02:25:57.159Z,27.79
2022-09-09T02:27:01.743Z,27.78
2022-09-09T02:28:07.502Z,27.78
2022-09-09T02:29:19.886Z,27.74
2022-09-09T02:30:21.953Z,27.79
2022-09-09T02:31:25.487Z,27.80
2022-09-09T02:32:28.164Z,27.84
2022-09-09T02:33:38.117Z,27.78
2022-09-09T02:34:50.950Z,27.80
2022-09-09T02:35:53.956Z,27.83
2022-09-09T02:36:58.355Z,27.84
2022-09-09T02:38:05.018Z,27.82
2022-09-09T02:39:10.173Z,27.83
2022-09-09T02:40:13.313Z,27.84
2022-09-09T02:41:14.975Z,27.82
2022-09-09T02:42:16.535Z,27.81
2022-09-09T02:43:18.305Z,27.84
2022-09-09T02:44:20.196Z,27.84
2022-09-09T02:45:26.205Z,27.83
2022-09-09T02:46:46.656Z,27.81
2022-09-09T02:47:57.294Z,27.84
2022-09-09T02:49:19.617Z,27.86
2022-09-09T02:50:27.097Z,27.91
2022-09-09T02:51:56.279Z,27.89
2022-09-09T02:53:09.409Z,27.90
2022-09-09T02:54:21.997Z,27.91
2022-09-09T02:55:43.283Z,27.84
2022-09-09T02:56:52.512Z,27.86
2022-09-09T02:57:56.207Z,27.81
2022-09-09T02:58:57.802Z,27.76
2022-09-09T02:59:59.972Z,27.72
2022-09-09T03:01:03.949Z,27.71
2022-09-09T03:02:06.139Z,27.71
2022-09-09T03:03:10.088Z,27.69
2022-09-09T03:04:11.630Z,27.68
2022-09-09T03:05:14.099Z,27.68
2022-09-09T03:06:15.637Z,27.70
2022-09-09T03:07:18.190Z,27.71
2022-09-09T03:08:19.752Z,27.68
2022-09-09T03:09:21.299Z,27.70
2022-09-09T03:10:22.828Z,27.70
2022-09-09T03:11:24.376Z,27.71
2022-09-09T03:12:25.941Z,27.71
2022-09-09T03:13:27.468Z,27.74
2022-09-09T03:14:28.985Z,27.77
2022-09-09T03:15:32.154Z,27.79
2022-09-09T03:16:35.378Z,27.79
2022-09-09T03:17:37.583Z,27.81
2022-09-09T03:18:39.180Z,27.76
2022-09-09T03:19:41.997Z,27.76
2022-09-09T03:20:43.999Z,27.76
2022-09-09T03:21:49.096Z,27.74
2022-09-09T03:22:50.718Z,27.67
2022-09-09T03:23:52.246Z,27.70
2022-09-09T03:24:53.811Z,27.77
2022-09-09T03:25:58.062Z,27.78
2022-09-09T03:26:59.651Z,27.76
2022-09-09T03:28:01.372Z,27.77
2022-09-09T03:29:02.944Z,27.79
2022-09-09T03:30:04.980Z,27.79
2022-09-09T03:31:07.131Z,27.82
2022-09-09T03:32:11.163Z,27.81
2022-09-09T03:33:13.684Z,27.82
2022-09-09T03:34:15.223Z,27.79
2022-09-09T03:35:17.806Z,27.81
2022-09-09T03:36:19.548Z,27.78
2022-09-09T03:37:21.410Z,27.77
2022-09-09T03:38:24.697Z,27.76
2022-09-09T03:39:26.238Z,27.71
2022-09-09T03:40:27.807Z,27.67
2022-09-09T03:41:29.713Z,27.68
2022-09-09T03:42:32.446Z,27.60
2022-09-09T03:43:34.344Z,27.55
2022-09-09T03:44:35.936Z,27.49
2022-09-09T03:45:37.555Z,27.48
2022-09-09T03:46:39.337Z,27.46
2022-09-09T03:47:41.331Z,27.43
2022-09-09T03:48:43.001Z,27.41
2022-09-09T03:49:44.675Z,27.38
2022-09-09T03:50:51.544Z,27.36
2022-09-09T03:51:53.063Z,27.38
2022-09-09T03:52:54.570Z,27.39
2022-09-09T03:53:57.810Z,27.40
2022-09-09T03:54:59.402Z,27.47
2022-09-09T03:56:01.719Z,27.50
2022-09-09T03:57:04.407Z,27.55
2022-09-09T03:58:05.927Z,27.59
2022-09-09T03:59:07.551Z,27.60
2022-09-09T04:00:09.939Z,27.59
2022-09-09T04:01:14.546Z,27.59
2022-09-09T04:02:16.702Z,27.59
2022-09-09T04:03:18.420Z,27.56
2022-09-09T04:04:21.050Z,27.49
2022-09-09T04:05:22.566Z,27.46
2022-09-09T04:06:24.130Z,27.45
2022-09-09T04:07:26.050Z,27.40
2022-09-09T04:08:28.056Z,27.42
2022-09-09T04:09:29.602Z,27.43
2022-09-09T04:10:31.159Z,27.45
2022-09-09T04:11:32.712Z,27.48
2022-09-09T04:12:35.740Z,27.50
2022-09-09T04:13:39.617Z,27.52
2022-09-09T04:14:41.740Z,27.53
2022-09-09T04:15:44.292Z,27.52
2022-09-09T04:16:46.132Z,27.53
2022-09-09T04:17:48.159Z,27.53
2022-09-09T04:18:49.950Z,27.51
2022-09-09T04:19:51.477Z,27.53
2022-09-09T04:20:54.055Z,27.53
2022-09-09T04:21:55.598Z,27.55
2022-09-09T04:22:57.137Z,27.52
2022-09-09T04:23:58.699Z,27.50
2022-09-09T04:25:00.226Z,27.49
2022-09-09T04:26:02.943Z,27.46
2022-09-09T04:27:04.510Z,27.47
2022-09-09T04:28:06.081Z,27.47
2022-09-09T04:29:08.659Z,27.46
2022-09-09T04:30:11.196Z,27.45
2022-09-09T04:31:19.092Z,27.52
2022-09-09T04:32:20.662Z,27.41
2022-09-09T04:33:22.505Z,27.48
2022-09-09T04:34:24.082Z,27.53
2022-09-09T04:35:25.675Z,27.55
2022-09-09T04:36:27.212Z,27.55
2022-09-09T04:37:29.472Z,27.56
2022-09-09T04:38:31.339Z,27.59
2022-09-09T04:39:32.900Z,27.68
2022-09-09T04:40:34.511Z,27.76
2022-09-09T04:41:36.174Z,27.78
2022-09-09T04:42:38.090Z,27.71
2022-09-09T04:43:40.417Z,27.69
2022-09-09T04:44:41.912Z,27.68
2022-09-09T04:45:44.984Z,27.71
2022-09-09T04:46:46.570Z,27.71
2022-09-09T04:47:48.078Z,27.66
2022-09-09T04:48:50.609Z,27.61
2022-09-09T04:49:53.057Z,27.56
2022-09-09T04:51:04.686Z,27.55
2022-09-09T04:52:06.395Z,27.54
2022-09-09T04:53:08.564Z,27.52
2022-09-09T04:54:10.277Z,27.69
2022-09-09T04:55:13.799Z,27.83
2022-09-09T04:56:17.136Z,27.91
2022-09-09T04:57:19.018Z,27.99
2022-09-09T04:58:22.794Z,28.08
2022-09-09T04:59:24.335Z,28.21
2022-09-09T05:00:26.207Z,28.26
2022-09-09T05:01:28.117Z,28.28
2022-09-09T05:02:31.642Z,28.32
2022-09-09T05:03:33.489Z,28.38
2022-09-09T05:04:34.986Z,28.40
2022-09-09T05:05:37.181Z,28.44
2022-09-09T05:06:38.695Z,28.45
2022-09-09T05:07:40.254Z,28.51
2022-09-09T05:08:43.246Z,28.45
2022-09-09T05:09:46.272Z,28.43
2022-09-09T05:10:47.795Z,28.51
2022-09-09T05:11:49.918Z,28.59
2022-09-09T05:12:55.132Z,28.58
2022-09-09T05:13:57.735Z,28.62
2022-09-09T05:14:59.229Z,28.67
2022-09-09T05:16:00.973Z,28.62
2022-09-09T05:17:02.639Z,28.61
2022-09-09T05:18:04.303Z,28.58
2022-09-09T05:19:05.904Z,28.66
2022-09-09T05:20:10.219Z,28.72
2022-09-09T05:21:14.529Z,28.60
2022-09-09T05:22:21.393Z,28.60
2022-09-09T05:23:23.769Z,28.68
2022-09-09T05:24:25.353Z,28.77
2022-09-09T05:25:27.123Z,28.85
2022-09-09T05:26:30.424Z,28.87
2022-09-09T05:27:32.468Z,28.85
2022-09-09T05:28:36.414Z,28.83
2022-09-09T05:29:38.031Z,28.86
2022-09-09T05:30:39.594Z,28.94
2022-09-09T05:31:41.933Z,28.99
2022-09-09T05:32:44.397Z,29.04
2022-09-09T05:33:47.583Z,29.06
2022-09-09T05:34:49.141Z,29.07
2022-09-09T05:35:59.872Z,29.07
2022-09-09T05:37:01.394Z,29.12
2022-09-09T05:38:02.932Z,29.22
2022-09-09T05:39:04.714Z,29.17
2022-09-09T05:40:07.322Z,29.20
2022-09-09T05:41:09.371Z,29.21
2022-09-09T05:42:10.952Z,29.30
2022-09-09T05:43:12.483Z,29.29
2022-09-09T05:44:14.453Z,29.37
2022-09-09T05:45:15.982Z,29.45
2022-09-09T05:46:20.313Z,29.50
2022-09-09T05:47:22.012Z,29.53
2022-09-09T05:48:23.693Z,29.58
2022-09-09T05:49:25.431Z,29.59
2022-09-09T05:50:31.426Z,29.66
2022-09-09T05:51:33.490Z,29.70
2022-09-09T05:52:35.014Z,29.79
2022-09-09T05:53:36.768Z,29.83
2022-09-09T05:54:38.838Z,29.86
2022-09-09T05:55:40.422Z,29.85
2022-09-09T05:56:42.022Z,29.90
2022-09-09T05:57:43.519Z,30.00
2022-09-09T05:58:45.631Z,29.98
2022-09-09T05:59:47.373Z,30.01
2022-09-09T06:00:49.094Z,30.01
2022-09-09T06:01:50.824Z,30.06
2022-09-09T06:02:53.714Z,30.04
2022-09-09T06:03:55.913Z,30.09
2022-09-09T06:05:00.447Z,30.10
2022-09-09T06:06:06.637Z,30.14
2022-09-09T06:07:08.495Z,30.15
2022-09-09T06:08:10.023Z,30.12
2022-09-09T06:09:12.394Z,30.05
2022-09-09T06:10:14.651Z,29.97
2022-09-09T06:11:18.996Z,29.95
2022-09-09T06:12:21.889Z,29.90
2022-09-09T06:13:23.505Z,29.91
2022-09-09T06:14:26.467Z,29.91
2022-09-09T06:15:28.099Z,29.88
2022-09-09T06:16:31.138Z,29.85
2022-09-09T06:17:32.698Z,29.81
2022-09-09T06:18:34.426Z,29.79
2022-09-09T06:19:36.082Z,29.76
2022-09-09T06:20:37.940Z,29.76
2022-09-09T06:21:39.723Z,29.77
2022-09-09T06:22:42.066Z,29.77
2022-09-09T06:23:45.471Z,29.75
2022-09-09T06:24:47.016Z,29.75
2022-09-09T06:25:49.990Z,29.73
2022-09-09T06:26:51.537Z,29.74
2022-09-09T06:27:53.055Z,29.73
2022-09-09T06:28:56.289Z,29.72
2022-09-09T06:29:57.854Z,29.71
2022-09-09T06:31:00.918Z,29.70
2022-09-09T06:32:03.838Z,29.68
2022-09-09T06:33:05.407Z,29.72
2022-09-09T06:34:09.047Z,29.63
2022-09-09T06:35:11.805Z,29.65
2022-09-09T06:36:15.871Z,29.67
2022-09-09T06:37:17.437Z,29.65
2022-09-09T06:38:19.854Z,29.60
2022-09-09T06:39:22.482Z,29.57
2022-09-09T06:40:24.061Z,29.54
2022-09-09T06:41:29.747Z,29.46
2022-09-09T06:42:32.520Z,29.49
2022-09-09T06:43:34.090Z,29.51
2022-09-09T06:44:35.810Z,29.50
2022-09-09T06:45:38.589Z,29.52
2022-09-09T06:46:40.792Z,29.46
2022-09-09T06:47:42.864Z,29.46
2022-09-09T06:48:45.632Z,29.37
2022-09-09T06:49:48.464Z,29.35
2022-09-09T06:50:53.055Z,29.41
2022-09-09T06:51:55.083Z,29.39
2022-09-09T06:52:56.609Z,29.38
2022-09-09T06:54:00.305Z,29.41
2022-09-09T06:55:01.848Z,29.46
2022-09-09T06:56:25.257Z,29.43
2022-09-09T06:57:36.803Z,29.52
2022-09-09T06:58:45.112Z,29.54
2022-09-09T06:59:46.662Z,29.57
2022-09-09T07:00:48.294Z,29.57
2022-09-09T07:01:54.854Z,29.46
2022-09-09T07:02:57.199Z,29.56
2022-09-09T07:04:00.256Z,29.54
2022-09-09T07:05:01.902Z,29.46
2022-09-09T07:06:04.965Z,29.23
2022-09-09T07:07:06.579Z,29.10
2022-09-09T07:08:08.217Z,28.96
2022-09-09T07:09:14.813Z,28.88
2022-09-09T07:10:16.422Z,28.97
2022-09-09T07:11:18.995Z,29.04
2022-09-09T07:12:20.674Z,29.14
2022-09-09T07:13:26.503Z,29.15
2022-09-09T07:14:28.442Z,29.23
2022-09-09T07:15:29.965Z,29.22
2022-09-09T07:16:34.601Z,29.20
2022-09-09T07:17:36.332Z,29.17
2022-09-09T07:18:38.206Z,29.22
2022-09-09T07:19:39.735Z,29.26
2022-09-09T07:20:41.274Z,29.31
2022-09-09T07:21:43.706Z,29.34
2022-09-09T07:22:45.231Z,29.26
2022-09-09T07:23:46.852Z,29.30
2022-09-09T07:24:49.301Z,29.37
2022-09-09T07:25:51.525Z,29.39
2022-09-09T07:26:53.251Z,29.30
2022-09-09T07:27:55.634Z,29.32
2022-09-09T07:28:58.199Z,29.31
2022-09-09T07:29:59.745Z,29.36
2022-09-09T07:31:05.804Z,29.29
2022-09-09T07:32:07.400Z,29.33
2022-09-09T07:33:10.485Z,29.23
2022-09-09T07:34:12.179Z,29.24
2022-09-09T07:35:13.908Z,29.26
2022-09-09T07:36:16.963Z,29.25
2022-09-09T07:37:18.855Z,29.24
2022-09-09T07:38:21.342Z,29.25
2022-09-09T07:39:22.880Z,29.24
2022-09-09T07:40:24.475Z,29.24
2022-09-09T07:41:33.751Z,29.25
2022-09-09T07:42:35.365Z,29.14
2022-09-09T07:43:36.906Z,28.91
2022-09-09T07:44:40.502Z,29.02
2022-09-09T07:45:43.025Z,29.11
2022-09-09T07:46:46.095Z,29.19
2022-09-09T07:47:49.040Z,29.26
2022-09-09T07:48:54.127Z,29.30
2022-09-09T07:49:56.633Z,29.33
2022-09-09T07:51:06.968Z,29.35
2022-09-09T07:52:08.748Z,29.37
2022-09-09T07:53:10.308Z,28.88
2022-09-09T07:54:14.305Z,28.64
2022-09-09T07:55:16.483Z,28.82
2022-09-09T07:56:19.192Z,28.93
2022-09-09T07:57:20.767Z,29.05
2022-09-09T07:58:22.295Z,29.08
2022-09-09T07:59:25.091Z,29.15
2022-09-09T08:00:29.543Z,29.22
2022-09-09T08:01:38.475Z,29.22
2022-09-09T08:02:40.014Z,29.31
2022-09-09T08:03:41.556Z,29.16
2022-09-09T08:04:43.088Z,29.00
2022-09-09T08:05:44.698Z,28.99
2022-09-09T08:06:48.169Z,29.11
2022-09-09T08:07:49.790Z,28.90
2022-09-09T08:08:52.407Z,29.00
2022-09-09T08:09:55.242Z,29.10
2022-09-09T08:11:12.638Z,29.14
2022-09-09T08:12:14.234Z,29.24
2022-09-09T08:13:18.503Z,29.29
2022-09-09T08:14:20.471Z,29.14
2022-09-09T08:15:21.988Z,28.66
2022-09-09T08:16:28.851Z,28.80
2022-09-09T08:17:30.362Z,28.92
2022-09-09T08:18:31.925Z,28.42
2022-09-09T08:19:37.096Z,28.62
2022-09-09T08:20:38.944Z,28.84
2022-09-09T08:21:41.879Z,29.02
2022-09-09T08:22:43.471Z,29.15
2022-09-09T08:23:46.952Z,29.25
2022-09-09T08:24:48.507Z,29.16
2022-09-09T08:25:51.087Z,29.24
2022-09-09T08:26:52.656Z,29.32
2022-09-09T08:27:54.696Z,29.36
2022-09-09T08:28:58.357Z,29.39
2022-09-09T08:30:00.069Z,29.43
2022-09-09T08:31:10.372Z,29.46
2022-09-09T08:32:11.965Z,29.42
2022-09-09T08:33:13.496Z,29.47
2022-09-09T08:34:16.000Z,29.35
2022-09-09T08:35:18.564Z,29.46
2022-09-09T08:36:22.684Z,29.53
2022-09-09T08:37:24.289Z,29.45
2022-09-09T08:38:25.841Z,29.56
2022-09-09T08:39:27.424Z,29.59
2022-09-09T08:40:35.763Z,29.58
2022-09-09T08:42:01.738Z,29.60
2022-09-09T08:43:05.769Z,29.38
2022-09-09T08:44:28.436Z,29.17
2022-09-09T08:45:36.582Z,29.32
2022-09-09T08:46:43.959Z,29.43
2022-09-09T08:47:48.266Z,29.53
2022-09-09T08:48:59.892Z,29.59
2022-09-09T08:50:26.338Z,29.60
2022-09-09T08:51:31.483Z,29.07
2022-09-09T08:52:48.268Z,29.22
2022-09-09T08:53:59.032Z,29.22
2022-09-09T08:55:22.963Z,29.31
2022-09-09T08:56:27.665Z,29.46
2022-09-09T08:57:32.518Z,29.53
2022-09-09T08:58:36.661Z,29.57
2022-09-09T08:59:38.949Z,29.63
2022-09-09T09:01:09.278Z,29.49
2022-09-09T09:02:22.348Z,29.33
2022-09-09T09:03:35.999Z,29.32
2022-09-09T09:04:52.419Z,29.45
2022-09-09T09:06:12.104Z,29.27
2022-09-09T09:07:32.872Z,29.37
2022-09-09T09:08:52.567Z,29.48
2022-09-09T09:10:39.803Z,29.37
2022-09-09T09:11:58.075Z,29.51
2022-09-09T09:13:02.638Z,29.66
2022-09-09T09:14:24.469Z,29.65
2022-09-09T09:15:32.678Z,29.78
2022-09-09T09:16:44.333Z,29.82
2022-09-09T09:17:45.951Z,29.86
2022-09-09T09:18:47.936Z,29.88
2022-09-09T09:19:53.240Z,29.86
2022-09-09T09:21:14.344Z,29.84
2022-09-09T09:22:32.565Z,29.88
2022-09-09T09:23:50.055Z,29.90
2022-09-09T09:25:11.755Z,29.91
2022-09-09T09:26:13.471Z,29.85
2022-09-09T09:27:19.357Z,29.81
2022-09-09T09:28:31.185Z,29.60
2022-09-09T09:29:32.769Z,29.56
2022-09-09T09:31:00.687Z,29.07
2022-09-09T09:32:04.406Z,29.36
2022-09-09T09:33:25.519Z,29.54
2022-09-09T09:34:27.087Z,29.61
2022-09-09T09:35:28.771Z,29.37
2022-09-09T09:37:02.717Z,29.47
2022-09-09T09:41:07.017Z,29.87
2022-09-09T09:42:18.824Z,29.87
2022-09-09T09:43:28.023Z,29.87
2022-09-09T09:44:32.039Z,29.89
2022-09-09T09:45:55.194Z,29.66
2022-09-09T09:47:15.692Z,29.47
2022-09-09T09:48:17.295Z,29.31
2022-09-09T09:49:19.267Z,29.39
2022-09-09T09:50:21.504Z,29.53
2022-09-09T09:51:24.214Z,29.67
2022-09-09T09:52:29.368Z,29.71
2022-09-09T09:53:37.409Z,29.71
2022-09-09T09:54:40.380Z,29.81
2022-09-09T09:55:52.137Z,29.74
2022-09-09T09:56:54.016Z,29.81
2022-09-09T09:58:18.432Z,29.85
2022-09-09T09:59:39.134Z,29.86
2022-09-09T10:00:50.195Z,29.88
2022-09-09T10:01:51.994Z,29.97
2022-09-09T10:02:54.310Z,29.98
2022-09-09T10:04:00.151Z,29.97
2022-09-09T10:05:25.788Z,30.00
2022-09-09T10:06:38.509Z,30.02
2022-09-09T10:07:40.207Z,30.05
2022-09-09T10:08:47.657Z,30.02
2022-09-09T10:09:56.099Z,30.01
2022-09-09T10:11:29.637Z,30.03
2022-09-09T10:13:08.895Z,30.09
2022-09-09T10:14:26.616Z,30.01
2022-09-09T10:15:33.316Z,30.04
2022-09-09T10:16:46.773Z,29.70
2022-09-09T10:18:21.013Z,29.76
2022-09-09T10:19:34.639Z,29.90
2022-09-09T10:21:01.453Z,29.98
2022-09-09T10:22:24.703Z,29.96
2022-09-09T10:23:47.596Z,29.86
2022-09-09T10:24:55.087Z,29.79
2022-09-09T10:26:17.541Z,29.87
2022-09-09T10:27:19.048Z,29.94
2022-09-09T10:28:35.655Z,29.94
2022-09-09T10:29:46.177Z,30.00
2022-09-09T10:30:50.756Z,30.01
2022-09-09T10:32:27.521Z,29.98
2022-09-09T10:33:38.309Z,30.02
2022-09-09T10:35:08.444Z,29.98
2022-09-09T10:36:18.978Z,30.03
2022-09-09T10:37:30.672Z,30.03
2022-09-09T10:38:38.283Z,30.11
2022-09-09T10:39:43.790Z,30.10
2022-09-09T10:40:54.424Z,30.06
2022-09-09T10:42:17.771Z,30.06
2022-09-09T10:43:55.447Z,30.09
2022-09-09T10:44:58.915Z,30.15
2022-09-09T10:46:19.600Z,30.08
2022-09-09T10:47:33.775Z,30.06
2022-09-09T10:48:44.368Z,30.08
2022-09-09T10:49:51.957Z,30.01
2022-09-09T10:51:24.061Z,30.00
2022-09-09T10:52:41.476Z,30.07
2022-09-09T10:54:34.275Z,30.05
2022-09-09T10:55:43.702Z,30.11
2022-09-09T10:56:51.468Z,30.15
2022-09-09T10:57:58.492Z,30.16
2022-09-09T10:59:13.313Z,30.12
2022-09-09T11:00:41.011Z,30.16
2022-09-09T11:01:57.736Z,30.14
2022-09-09T11:03:04.276Z,30.15
2022-09-09T11:04:24.932Z,30.16
2022-09-09T11:05:48.875Z,30.13
2022-09-09T11:06:55.306Z,30.17
2022-09-09T11:08:02.247Z,30.20
2022-09-09T11:09:06.090Z,30.23
2022-09-09T11:10:22.540Z,30.19
2022-09-09T11:11:50.404Z,30.20
2022-09-09T11:12:59.080Z,30.22
2022-09-09T11:14:13.313Z,30.21
2022-09-09T11:15:37.419Z,30.19
2022-09-09T11:16:49.481Z,30.25
2022-09-09T11:17:57.604Z,30.25
2022-09-09T11:19:35.278Z,30.11
2022-09-09T11:20:37.806Z,30.24
2022-09-09T11:21:45.769Z,30.18
2022-09-09T11:22:55.105Z,30.20
2022-09-09T11:24:13.944Z,30.15
2022-09-09T11:25:30.575Z,30.21
2022-09-09T11:26:41.324Z,30.21
2022-09-09T11:28:20.376Z,30.24
2022-09-09T11:29:48.534Z,30.17
2022-09-09T11:31:16.191Z,29.91
2022-09-09T11:32:33.377Z,30.10
2022-09-09T11:33:59.189Z,29.93
2022-09-09T11:35:39.319Z,30.04
2022-09-09T11:37:13.277Z,29.94
2022-09-09T11:38:53.655Z,30.10
2022-09-09T11:39:55.761Z,30.21
2022-09-09T11:41:01.382Z,30.24
2022-09-09T11:42:15.179Z,30.21
2022-09-09T11:43:25.017Z,30.26
2022-09-09T11:44:32.017Z,30.25
2022-09-09T11:45:36.487Z,30.20
2022-09-09T11:46:40.832Z,30.22
2022-09-09T11:47:53.082Z,30.12
2022-09-09T11:49:06.688Z,30.32
2022-09-09T11:50:17.523Z,30.32
2022-09-09T11:51:21.720Z,30.25
2022-09-09T11:52:37.464Z,30.28
2022-09-09T11:54:03.596Z,30.03
2022-09-09T11:55:37.152Z,29.94
2022-09-09T11:56:46.063Z,29.84
2022-09-09T11:57:49.694Z,29.97
2022-09-09T11:59:21.791Z,30.00
2022-09-09T12:00:34.472Z,30.06
2022-09-09T12:01:43.887Z,30.11
2022-09-09T12:02:51.720Z,30.15
2022-09-09T12:04:06.195Z,30.22
2022-09-09T12:05:13.491Z,30.03
2022-09-09T12:06:27.619Z,30.15
2022-09-09T12:07:39.969Z,30.12
2022-09-09T12:08:46.418Z,30.21
2022-09-09T12:09:52.810Z,30.30
2022-09-09T12:10:57.191Z,30.33
2022-09-09T12:12:22.335Z,30.23
2022-09-09T12:13:28.531Z,30.29
2022-09-09T12:14:42.121Z,30.35
2022-09-09T12:15:53.839Z,30.28
2022-09-09T12:16:55.643Z,30.30
2022-09-09T12:18:03.215Z,30.23
2022-09-09T12:19:26.230Z,30.21
2022-09-09T12:20:34.708Z,29.29
2022-09-09T12:22:03.914Z,29.51
2022-09-09T12:23:39.489Z,29.97
2022-09-09T12:25:03.118Z,30.07
2022-09-09T12:26:22.305Z,30.16
2022-09-09T12:27:23.796Z,30.27
2022-09-09T12:28:41.818Z,30.26
2022-09-09T12:30:04.874Z,30.30
2022-09-09T12:31:35.386Z,30.28
2022-09-09T12:32:38.457Z,30.37
2022-09-09T12:33:44.260Z,30.29
2022-09-09T12:34:50.602Z,30.33
2022-09-09T12:35:57.565Z,30.35
2022-09-09T12:37:10.643Z,29.29
2022-09-09T12:38:20.466Z,29.38
2022-09-09T12:39:47.861Z,29.80
2022-09-09T12:40:57.392Z,30.03
2022-09-09T12:41:59.008Z,30.13
2022-09-09T12:43:02.286Z,30.22
2022-09-09T12:44:10.994Z,30.23
2022-09-09T12:45:21.265Z,30.27
2022-09-09T12:46:45.476Z,30.31
2022-09-09T12:47:53.249Z,30.33
2022-09-09T12:48:55.385Z,30.38
2022-09-09T12:49:57.532Z,30.40
2022-09-09T12:51:00.508Z,30.42
2022-09-09T12:52:10.921Z,30.40
2022-09-09T12:53:26.220Z,30.34
2022-09-09T12:54:29.122Z,30.37
2022-09-09T12:55:34.455Z,30.40
2022-09-09T12:56:37.058Z,30.38
2022-09-09T12:57:40.620Z,30.43
2022-09-09T12:58:47.952Z,30.39
2022-09-09T12:59:49.523Z,30.08
2022-09-09T13:00:57.473Z,29.78
2022-09-09T13:02:00.234Z,30.05
2022-09-09T13:03:04.286Z,29.98
2022-09-09T13:04:21.211Z,29.93
2022-09-09T13:05:22.737Z,30.13
2022-09-09T13:06:34.290Z,30.25
2022-09-09T13:07:35.977Z,30.43
2022-09-09T13:08:37.622Z,30.52
2022-09-09T13:09:39.389Z,30.53
2022-09-09T13:11:04.273Z,30.52
2022-09-09T13:12:13.194Z,30.53
2022-09-09T13:13:21.618Z,30.59
2022-09-09T13:14:38.268Z,30.53
2022-09-09T13:15:39.921Z,29.80
2022-09-09T13:16:43.149Z,30.01
2022-09-09T13:17:52.115Z,30.19
2022-09-09T13:18:54.097Z,30.34
2022-09-09T13:19:57.143Z,30.40
2022-09-09T13:20:59.163Z,30.45
2022-09-09T13:22:00.751Z,30.51
2022-09-09T13:23:03.248Z,30.55
2022-09-09T13:24:08.447Z,30.54
2022-09-09T13:25:10.032Z,30.41
2022-09-09T13:26:28.057Z,30.40
2022-09-09T13:27:35.353Z,30.44
2022-09-09T13:28:36.966Z,30.50
2022-09-09T13:29:40.647Z,30.54
2022-09-09T13:30:43.880Z,30.56
2022-09-09T13:31:46.397Z,30.61
2022-09-09T13:32:48.018Z,30.60
2022-09-09T13:33:49.590Z,30.59
2022-09-09T13:34:53.498Z,30.55
2022-09-09T13:35:56.313Z,30.54
2022-09-09T13:37:06.767Z,30.52
2022-09-09T13:38:10.545Z,30.54
2022-09-09T13:39:19.078Z,30.50
2022-09-09T13:40:22.819Z,30.55
2022-09-09T13:41:36.035Z,30.51
2022-09-09T13:42:43.578Z,30.42
2022-09-09T13:43:48.423Z,30.48
2022-09-09T13:44:50.025Z,30.25
2022-09-09T13:46:00.876Z,29.33
2022-09-09T13:47:21.599Z,29.64
2022-09-09T13:48:23.573Z,29.93
2022-09-09T13:49:30.147Z,30.10
2022-09-09T13:50:32.056Z,30.23
2022-09-09T13:51:51.688Z,30.23
2022-09-09T13:52:55.491Z,30.33
2022-09-09T13:53:57.893Z,30.39
2022-09-09T13:55:00.365Z,30.43
2022-09-09T13:56:02.328Z,30.51
2022-09-09T13:57:05.451Z,30.52
2022-09-09T13:58:07.057Z,30.53
2022-09-09T13:59:15.190Z,30.51
2022-09-09T14:00:17.128Z,30.50
2022-09-09T14:01:18.687Z,30.45
2022-09-09T14:02:22.397Z,30.48
2022-09-09T14:03:24.037Z,30.49
2022-09-09T14:04:25.601Z,30.54
2022-09-09T14:05:28.310Z,30.54
2022-09-09T14:06:30.693Z,30.55
2022-09-09T14:07:33.134Z,30.54
2022-09-09T14:08:38.351Z,30.48
2022-09-09T14:09:40.989Z,30.56
2022-09-09T14:10:42.530Z,30.60
2022-09-09T14:11:46.573Z,30.63
2022-09-09T14:12:48.101Z,30.65
2022-09-09T14:13:52.362Z,30.53
2022-09-09T14:14:53.945Z,30.14
2022-09-09T14:15:55.762Z,30.32
2022-09-09T14:16:57.345Z,30.44
2022-09-09T14:17:59.950Z,30.52
2022-09-09T14:19:02.097Z,30.52
2022-09-09T14:20:10.138Z,30.64
2022-09-09T14:21:12.444Z,30.71
2022-09-09T14:22:14.065Z,30.70
2022-09-09T14:23:16.494Z,30.68
2022-09-09T14:24:18.503Z,30.70
2022-09-09T14:25:20.085Z,30.72
2022-09-09T14:26:25.586Z,30.66
2022-09-09T14:27:27.576Z,30.41
2022-09-09T14:28:54.483Z,30.45
2022-09-09T14:29:51.184Z,30.53
2022-09-09T14:30:52.744Z,30.64
2022-09-09T14:31:54.376Z,30.68
2022-09-09T14:32:55.963Z,30.65
2022-09-09T14:33:57.577Z,30.62